createdAt,value
2022-10-26T05:00:38.198Z,100443.64
2022-10-26T05:03:08.367Z,100443.07
2022-10-26T05:05:38.376Z,100437.61
2022-10-26T05:08:07.390Z,100440.17
2022-10-26T05:10:37.751Z,100444.75
2022-10-26T05:13:06.894Z,100447.66
2022-10-26T05:15:36.141Z,100455.27
2022-10-26T05:18:06.770Z,100456.88
2022-10-26T05:20:37.479Z,100457.86
2022-10-26T05:23:09.285Z,100460.95
2022-10-26T05:25:39.394Z,100460.75
2022-10-26T05:28:15.566Z,100464.73
2022-10-26T05:30:46.227Z,100469.08
2022-10-26T05:33:16.123Z,100468.67
2022-10-26T05:35:45.531Z,100468.60
2022-10-26T05:38:19.005Z,100467.77
2022-10-26T05:40:53.624Z,100472.56
2022-10-26T05:43:24.789Z,100475.73
2022-10-26T05:45:55.458Z,100478.48
2022-10-26T05:48:24.803Z,100491.25
2022-10-26T05:50:54.251Z,100495.89
2022-10-26T05:53:23.244Z,100501.35
2022-10-26T05:55:52.975Z,100504.27
2022-10-26T05:58:22.043Z,100509.40
2022-10-26T06:01:12.221Z,100510.52
2022-10-26T06:03:44.614Z,100517.77
2022-10-26T06:06:14.631Z,100519.01
2022-10-26T06:08:44.134Z,100521.91
2022-10-26T06:11:13.946Z,100525.77
2022-10-26T06:13:43.580Z,100528.15
2022-10-26T06:16:29.942Z,100527.95
2022-10-26T06:19:17.946Z,100533.06
2022-10-26T06:21:47.431Z,100533.86
2022-10-26T06:24:34.077Z,100533.57
2022-10-26T06:27:18.700Z,100537.27
2022-10-26T06:30:01.995Z,100540.69
2022-10-26T06:32:31.494Z,100540.64
2022-10-26T06:35:07.482Z,100540.62
2022-10-26T06:37:38.140Z,100537.77
2022-10-26T06:40:10.914Z,100535.60
2022-10-26T06:42:39.818Z,100534.48
2022-10-26T06:48:05.237Z,100534.88
2022-10-26T06:50:39.045Z,100534.71
2022-10-26T06:53:27.005Z,100535.67
2022-10-26T06:55:59.426Z,100538.70
2022-10-26T06:58:34.073Z,100535.59
2022-10-26T07:01:03.750Z,100539.05
2022-10-26T07:03:32.681Z,100537.52
2022-10-26T07:06:01.836Z,100536.62
2022-10-26T07:08:32.807Z,100538.48
2022-10-26T07:11:02.387Z,100544.62
2022-10-26T07:13:31.186Z,100549.75
2022-10-26T07:16:00.394Z,100547.17
2022-10-26T07:18:29.527Z,100550.48
2022-10-26T07:21:00.725Z,100554.35
2022-10-26T07:26:04.183Z,100556.46
2022-10-26T07:28:34.397Z,100556.36
2022-10-26T07:31:06.276Z,100563.64
2022-10-26T07:33:38.078Z,100563.99
2022-10-26T07:36:11.511Z,100568.60
2022-10-26T07:38:40.880Z,100567.10
2022-10-26T07:41:10.486Z,100568.94
2022-10-26T07:43:39.697Z,100567.58
2022-10-26T07:46:08.987Z,100567.08
2022-10-26T07:48:38.905Z,100564.01
2022-10-26T07:51:07.379Z,100573.95
2022-10-26T07:53:36.620Z,100574.95
2022-10-26T07:56:06.342Z,100578.94
2022-10-26T07:58:35.208Z,100581.70
2022-10-26T08:01:13.997Z,100582.07
2022-10-26T08:03:43.275Z,100587.77
2022-10-26T08:06:12.336Z,100588.48
2022-10-26T08:08:44.939Z,100593.17
2022-10-26T08:11:18.012Z,100594.52
2022-10-26T08:13:46.757Z,100597.27
2022-10-26T08:16:15.810Z,100600.33
2022-10-26T08:18:44.577Z,100604.23
2022-10-26T08:21:21.710Z,100601.60
2022-10-26T08:23:55.865Z,100609.14
2022-10-26T08:26:25.222Z,100612.20
2022-10-26T08:28:53.668Z,100611.66
2022-10-26T08:31:22.594Z,100613.41
2022-10-26T08:33:51.659Z,100617.40
2022-10-26T08:36:26.455Z,100614.66
2022-10-26T08:38:55.692Z,100623.56
2022-10-26T08:41:46.748Z,100620.59
2022-10-26T08:44:25.634Z,100618.92
2022-10-26T08:47:10.575Z,100622.92
2022-10-26T08:49:49.158Z,100617.73
2022-10-26T08:52:24.058Z,100619.23
2022-10-26T08:54:57.380Z,100622.34
2022-10-26T08:57:43.716Z,100628.42
2022-10-26T09:00:18.646Z,100629.17
2022-10-26T09:02:52.224Z,100627.41
2022-10-26T09:05:43.977Z,100628.69
2022-10-26T09:08:26.212Z,100628.09
2022-10-26T09:11:19.284Z,100629.96
2022-10-26T09:13:59.809Z,100634.35
2022-10-26T09:16:56.371Z,100638.05
2022-10-26T09:19:28.952Z,100640.14
2022-10-26T09:22:13.565Z,100643.14
2022-10-26T09:25:24.344Z,100645.19
2022-10-26T09:28:02.470Z,100650.70
2022-10-26T09:30:32.215Z,100651.14
2022-10-26T09:33:19.749Z,100650.52
2022-10-26T09:36:02.693Z,100653.73
2022-10-26T09:38:53.263Z,100656.96
2022-10-26T09:41:31.757Z,100652.27
2022-10-26T09:44:24.807Z,100651.75
2022-10-26T09:47:14.892Z,100652.46
2022-10-26T09:49:48.933Z,100656.56
2022-10-26T09:52:17.618Z,100656.07
2022-10-26T09:54:46.195Z,100655.79
2022-10-26T09:57:20.685Z,100657.41
2022-10-26T09:59:51.025Z,100660.86
2022-10-26T10:02:36.444Z,100660.29
2022-10-26T10:05:50.689Z,100662.98
2022-10-26T10:08:23.396Z,100663.89
2022-10-26T10:11:13.187Z,100663.39
2022-10-26T10:13:45.193Z,100662.27
2022-10-26T10:16:19.771Z,100667.25
2022-10-26T10:18:56.970Z,100666.63
2022-10-26T10:21:35.133Z,100671.32
2022-10-26T10:24:31.300Z,100677.51
2022-10-26T10:27:06.375Z,100674.98
2022-10-26T10:29:41.786Z,100668.75
2022-10-26T10:32:23.131Z,100674.23
2022-10-26T10:34:56.381Z,100671.18
2022-10-26T10:37:25.207Z,100673.67
2022-10-26T10:40:03.435Z,100674.80
2022-10-26T10:42:36.151Z,100678.70
2022-10-26T10:45:07.399Z,100681.94
2022-10-26T10:47:37.847Z,100681.86
2022-10-26T10:50:23.933Z,100683.67
2022-10-26T10:52:53.231Z,100686.77
2022-10-26T10:55:24.345Z,100685.17
2022-10-26T10:58:34.569Z,100686.76
2022-10-26T11:01:04.423Z,100684.53
2022-10-26T11:03:54.724Z,100683.23
2022-10-26T11:06:29.155Z,100686.52
2022-10-26T11:09:14.663Z,100687.02
2022-10-26T11:12:23.808Z,100686.81
2022-10-26T11:15:03.995Z,100688.64
2022-10-26T11:17:41.823Z,100688.73
2022-10-26T11:20:17.132Z,100690.64
2022-10-26T11:23:12.391Z,100690.39
2022-10-26T11:25:48.155Z,100690.48
2022-10-26T11:28:21.772Z,100690.83
2022-10-26T11:30:53.950Z,100695.42
2022-10-26T11:33:39.273Z,100700.42
2022-10-26T11:36:21.844Z,100700.28
2022-10-26T11:39:21.657Z,100704.41
2022-10-26T11:42:25.498Z,100707.22
2022-10-26T11:45:25.238Z,100706.88
2022-10-26T11:48:21.435Z,100702.70
2022-10-26T11:50:58.811Z,100704.91
2022-10-26T11:53:43.058Z,100704.46
2022-10-26T11:56:23.562Z,100703.36
2022-10-26T11:58:53.993Z,100700.57
2022-10-26T12:01:23.795Z,100700.44
2022-10-26T12:03:55.471Z,100700.39
2022-10-26T12:06:32.226Z,100700.30
2022-10-26T12:09:07.556Z,100703.02
2022-10-26T12:11:46.131Z,100703.11
2022-10-26T12:14:27.325Z,100702.94
2022-10-26T12:17:16.188Z,100701.48
2022-10-26T12:19:54.470Z,100703.41
2022-10-26T12:22:33.564Z,100704.30
2022-10-26T12:25:12.470Z,100705.59
2022-10-26T12:27:45.271Z,100706.90
2022-10-26T12:30:19.577Z,100705.45
2022-10-26T12:32:49.113Z,100704.55
2022-10-26T12:35:44.392Z,100706.51
2022-10-26T12:38:29.004Z,100704.38
2022-10-26T12:41:22.980Z,100705.80
2022-10-26T12:43:57.224Z,100709.21
2022-10-26T12:46:26.685Z,100710.85
2022-10-26T12:48:56.670Z,100712.36
2022-10-26T12:51:34.122Z,100708.64
2022-10-26T12:54:05.267Z,100715.50
2022-10-26T12:56:48.917Z,100715.31
2022-10-26T12:59:59.360Z,100714.73
2022-10-26T13:02:59.559Z,100713.56
2022-10-26T13:05:56.081Z,100712.84
2022-10-26T13:08:26.085Z,100712.27
2022-10-26T13:11:17.280Z,100716.77
2022-10-26T13:13:55.237Z,100716.65
2022-10-26T13:16:27.268Z,100722.69
2022-10-26T13:18:57.574Z,100719.33
2022-10-26T13:21:27.911Z,100717.48
2022-10-26T13:24:02.050Z,100714.05
2022-10-26T13:26:32.359Z,100715.09
2022-10-26T13:29:04.261Z,100715.79
2022-10-26T13:31:33.038Z,100716.84
2022-10-26T13:34:10.444Z,100714.30
2022-10-26T13:36:42.356Z,100710.60
2022-10-26T13:39:17.393Z,100710.27
2022-10-26T13:41:49.814Z,100713.64
2022-10-26T13:44:53.063Z,100712.27
2022-10-26T13:47:29.519Z,100717.70
2022-10-26T13:50:08.020Z,100720.68
2022-10-26T13:52:42.298Z,100719.02
2022-10-26T13:55:24.557Z,100716.42
2022-10-26T13:58:20.734Z,100718.20
2022-10-26T14:01:14.025Z,100720.06
2022-10-26T14:03:43.583Z,100720.40
2022-10-26T14:06:30.342Z,100718.95
2022-10-26T14:09:03.182Z,100720.98
2022-10-26T14:11:43.586Z,100716.58
2022-10-26T14:14:19.170Z,100716.65
2022-10-26T14:16:50.961Z,100717.52
2022-10-26T14:19:41.575Z,100718.73
2022-10-26T14:22:30.906Z,100716.86
2022-10-26T14:25:01.708Z,100718.85
2022-10-26T14:27:40.016Z,100721.21
2022-10-26T14:30:30.367Z,100721.69
2022-10-26T14:32:59.995Z,100723.55
2022-10-26T14:35:37.866Z,100724.56
2022-10-26T14:38:17.433Z,100727.71
2022-10-26T14:40:47.640Z,100733.05
2022-10-26T14:43:23.930Z,100736.81
2022-10-26T14:45:54.852Z,100745.65
2022-10-26T14:48:35.624Z,100744.80
2022-10-26T14:51:08.999Z,100742.07
2022-10-26T14:53:40.501Z,100740.17
2022-10-26T14:56:40.894Z,100741.27
2022-10-26T14:59:28.041Z,100742.95
2022-10-26T15:02:00.578Z,100745.48
2022-10-26T15:04:35.138Z,100747.60
2022-10-26T15:07:13.147Z,100751.63
2022-10-26T15:09:50.461Z,100754.77
2022-10-26T15:12:37.236Z,100752.57
2022-10-26T15:15:15.244Z,100757.11
2022-10-26T15:17:56.864Z,100758.38
2022-10-26T15:20:28.817Z,100760.85
2022-10-26T15:23:04.567Z,100756.93
2022-10-26T15:25:35.400Z,100756.12
2022-10-26T15:28:21.303Z,100757.48
2022-10-26T15:31:07.075Z,100759.52
2022-10-26T15:33:39.142Z,100762.80
2022-10-26T15:36:19.741Z,100761.29
2022-10-26T15:38:49.722Z,100763.77
2022-10-26T15:41:28.525Z,100767.38
2022-10-26T15:44:06.754Z,100766.96
2022-10-26T15:46:39.558Z,100771.40
2022-10-26T15:49:17.049Z,100768.65
2022-10-26T15:51:49.965Z,100771.99
2022-10-26T15:54:19.212Z,100773.49
2022-10-26T15:56:48.478Z,100776.29
2022-10-26T15:59:19.477Z,100774.59
2022-10-26T16:01:48.893Z,100781.99
2022-10-26T16:04:17.798Z,100781.52
2022-10-26T16:06:47.423Z,100780.40
2022-10-26T16:09:19.910Z,100783.20
2022-10-26T16:11:49.863Z,100784.76
2022-10-26T16:14:18.995Z,100784.68
2022-10-26T16:16:48.304Z,100787.16
2022-10-26T16:19:30.328Z,100781.95
2022-10-26T16:22:00.974Z,100782.77
2022-10-26T16:24:31.806Z,100785.55
2022-10-26T16:27:00.943Z,100785.47
2022-10-26T16:29:30.735Z,100789.91
2022-10-26T16:31:59.986Z,100792.02
2022-10-26T16:34:29.013Z,100792.27
2022-10-26T16:36:57.594Z,100795.48
2022-10-26T16:39:25.994Z,100802.07
2022-10-26T16:41:54.444Z,100800.61
2022-10-26T16:44:23.590Z,100796.16
2022-10-26T16:46:52.055Z,100795.80
2022-10-26T16:49:20.638Z,100799.17
2022-10-26T16:51:49.838Z,100797.68
2022-10-26T16:54:18.795Z,100798.57
2022-10-26T16:56:47.295Z,100808.65
2022-10-26T16:59:16.635Z,100810.83
2022-10-26T17:01:45.966Z,100809.46
2022-10-26T17:04:15.197Z,100810.37
2022-10-26T17:06:44.609Z,100814.65
2022-10-26T17:09:13.212Z,100817.48
2022-10-26T17:11:41.957Z,100819.78
2022-10-26T17:14:10.449Z,100825.44
2022-10-26T17:16:39.325Z,100827.05
2022-10-26T17:19:08.961Z,100827.17
2022-10-26T17:21:37.575Z,100827.56
2022-10-26T17:24:07.431Z,100832.20
2022-10-26T17:26:36.165Z,100831.85
2022-10-26T17:29:04.617Z,100834.33
2022-10-26T17:31:34.367Z,100838.52
2022-10-26T17:34:02.743Z,100848.59
2022-10-26T17:36:32.035Z,100844.98
2022-10-26T17:39:01.706Z,100846.34
2022-10-26T17:41:30.799Z,100850.61
2022-10-26T17:43:59.869Z,100856.91
2022-10-26T17:46:28.839Z,100854.44
2022-10-26T17:48:59.442Z,100856.33
2022-10-26T17:51:29.816Z,100859.88
2022-10-26T17:54:01.572Z,100860.69
2022-10-26T17:56:32.982Z,100862.23
2022-10-26T17:59:10.338Z,100861.71
2022-10-26T18:01:40.233Z,100864.69
2022-10-26T18:04:09.656Z,100866.69
2022-10-26T18:06:38.705Z,100866.94
2022-10-26T18:09:07.127Z,100869.35
2022-10-26T18:11:35.957Z,100872.55
2022-10-26T18:14:04.834Z,100870.20
2022-10-26T18:16:33.609Z,100866.38
2022-10-26T18:19:05.426Z,100867.59
2022-10-26T18:21:39.625Z,100868.89
2022-10-26T18:24:10.323Z,100868.93
2022-10-26T18:26:39.570Z,100867.12
2022-10-26T18:29:08.757Z,100871.34
2022-10-26T18:31:38.122Z,100872.65
2022-10-26T18:34:07.788Z,100873.89
2022-10-26T18:39:08.095Z,100875.01
2022-10-26T18:41:37.126Z,100876.20
2022-10-26T18:44:06.342Z,100877.42
2022-10-26T18:46:41.180Z,100883.77
2022-10-26T18:49:10.512Z,100884.40
2022-10-26T18:51:39.109Z,100884.09
2022-10-26T18:54:08.068Z,100888.02
2022-10-26T18:56:36.668Z,100886.65
2022-10-26T18:59:06.060Z,100887.80
2022-10-26T19:01:36.783Z,100888.45
2022-10-26T19:04:08.184Z,100891.31
2022-10-26T19:06:39.548Z,100892.12
2022-10-26T19:09:10.711Z,100893.84
2022-10-26T19:11:39.410Z,100897.59
2022-10-26T19:14:09.360Z,100897.91
2022-10-26T19:16:47.560Z,100896.70
2022-10-26T19:19:19.426Z,100902.19
2022-10-26T19:21:50.563Z,100905.95
2022-10-26T19:24:27.708Z,100905.98
2022-10-26T19:27:18.919Z,100910.05
2022-10-26T19:29:47.458Z,100916.86
2022-10-26T19:32:16.001Z,100916.48
2022-10-26T19:34:44.894Z,100922.80
2022-10-26T19:37:13.834Z,100923.17
2022-10-26T19:39:43.667Z,100930.52
2022-10-26T19:42:12.251Z,100934.84
2022-10-26T19:44:41.593Z,100936.92
2022-10-26T19:47:10.644Z,100943.27
2022-10-26T19:49:39.232Z,100947.83
2022-10-26T19:52:07.942Z,100949.75
2022-10-26T19:54:36.575Z,100949.46
2022-10-26T19:57:05.169Z,100957.02
2022-10-26T19:59:34.132Z,100953.13
2022-10-26T20:02:02.578Z,100964.20
2022-10-26T20:04:31.394Z,100966.30
2022-10-26T20:07:00.224Z,100966.09
2022-10-26T20:09:29.765Z,100971.80
2022-10-26T20:11:58.499Z,100971.77
2022-10-26T20:14:27.317Z,100975.84
2022-10-26T20:16:55.791Z,100972.26
2022-10-26T20:19:24.509Z,100977.02
2022-10-26T20:21:54.688Z,100981.23
2022-10-26T20:24:23.206Z,100979.45
2022-10-26T20:26:52.115Z,100977.48
2022-10-26T20:29:21.982Z,100975.58
2022-10-26T20:31:55.191Z,100975.85
2022-10-26T20:34:24.740Z,100973.56
2022-10-26T20:36:53.494Z,100973.52
2022-10-26T20:39:22.180Z,100972.82
2022-10-26T20:41:52.038Z,100978.83
2022-10-26T20:44:25.464Z,100976.80
2022-10-26T20:46:54.957Z,100976.49
2022-10-26T20:49:24.242Z,100979.11
2022-10-26T20:52:26.510Z,100975.75
2022-10-26T20:55:25.022Z,100975.74
2022-10-26T20:57:59.519Z,100976.48
2022-10-26T21:00:32.320Z,100977.23
2022-10-26T21:03:01.003Z,100979.42
2022-10-26T21:05:34.004Z,100974.42
2022-10-26T21:08:06.122Z,100976.39
2022-10-26T21:10:34.901Z,100983.63
2022-10-26T21:13:03.955Z,100988.80
2022-10-26T21:15:32.428Z,100986.53
2022-10-26T21:18:01.334Z,100989.15
2022-10-26T21:20:31.660Z,100988.21
2022-10-26T21:23:01.002Z,100987.80
2022-10-26T21:25:30.540Z,100986.09
2022-10-26T21:27:59.777Z,100984.36
2022-10-26T21:30:29.164Z,100988.43
2022-10-26T21:32:58.473Z,100990.69
2022-10-26T21:35:26.905Z,100988.99
2022-10-26T21:37:56.988Z,100995.66
2022-10-26T21:40:26.149Z,101000.36
2022-10-26T21:42:54.918Z,101001.46
2022-10-26T21:45:23.679Z,100998.39
2022-10-26T21:47:54.196Z,100997.85
2022-10-26T21:50:22.847Z,100993.02
2022-10-26T21:52:54.250Z,100992.67
2022-10-26T21:55:23.559Z,100986.86
2022-10-26T21:57:54.562Z,100987.42
2022-10-26T22:00:23.725Z,100987.02
2022-10-26T22:02:52.721Z,100985.84
2022-10-26T22:05:22.176Z,100984.92
2022-10-26T22:07:51.600Z,100988.58
2022-10-26T22:10:20.842Z,100983.88
2022-10-26T22:12:50.425Z,100988.33
2022-10-26T22:15:19.282Z,100986.96
2022-10-26T22:17:48.424Z,100985.61
2022-10-26T22:20:17.788Z,100983.88
2022-10-26T22:22:46.473Z,100989.42
2022-10-26T22:30:40.541Z,100990.48
2022-10-26T22:33:09.204Z,100989.61
2022-10-26T22:35:38.267Z,100988.08
2022-10-26T22:38:07.291Z,100984.10
2022-10-26T22:40:35.992Z,100990.31
2022-10-26T22:43:04.849Z,100986.63
2022-10-26T22:45:33.671Z,100989.52
2022-10-26T22:48:02.089Z,100988.94
2022-10-26T22:50:31.240Z,100990.36
2022-10-26T22:53:00.094Z,100993.33
2022-10-26T22:55:28.448Z,100995.55
2022-10-26T22:57:57.192Z,100997.23
2022-10-26T23:00:26.452Z,100996.73
2022-10-26T23:02:55.623Z,100997.95
2022-10-26T23:05:24.559Z,100997.00
2022-10-26T23:07:53.660Z,100997.70
2022-10-26T23:10:23.359Z,100995.67
2022-10-26T23:12:52.596Z,100994.67
2022-10-26T23:15:20.783Z,100991.13
2022-10-26T23:17:50.267Z,100992.59
2022-10-26T23:20:19.340Z,100994.80
2022-10-26T23:22:48.780Z,100997.45
2022-10-26T23:25:17.940Z,100997.15
2022-10-26T23:27:46.750Z,101004.62
2022-10-26T23:30:15.615Z,101007.54
2022-10-26T23:32:44.833Z,101012.10
2022-10-26T23:35:13.852Z,101011.41
2022-10-26T23:37:43.064Z,101010.76
2022-10-26T23:40:12.298Z,101014.04
2022-10-26T23:42:41.341Z,101016.93
2022-10-26T23:45:10.642Z,101018.13
2022-10-26T23:47:40.957Z,101013.36
2022-10-26T23:50:09.559Z,101013.05
2022-10-26T23:52:38.405Z,101009.04
2022-10-26T23:55:08.025Z,101015.48
2022-10-26T23:57:36.718Z,101012.26
